createdAt,value
2022-09-04T00:02:15.517Z,9.2
2022-09-04T00:04:56.570Z,9.2
2022-09-04T00:07:20.624Z,9.2
2022-09-04T00:09:51.334Z,9.2
2022-09-04T00:12:24.970Z,9.3
2022-09-04T00:14:57.315Z,9.4
2022-09-04T00:20:08.068Z,9.6
2022-09-04T00:22:38.670Z,9.8
2022-09-04T00:25:09.276Z,10.0
2022-09-04T00:27:39.857Z,10.0
2022-09-04T00:30:10.467Z,10.0
2022-09-04T00:32:41.069Z,10.0
2022-09-04T00:35:21.670Z,10.1
2022-09-04T00:37:52.248Z,10.1
2022-09-04T00:40:22.834Z,10.2
2022-09-04T00:42:56.289Z,10.2
2022-09-04T00:45:26.921Z,10.2
2022-09-04T00:48:07.617Z,10.1
2022-09-04T00:50:38.354Z,10.0
2022-09-04T00:53:08.931Z,9.9
2022-09-04T00:55:39.512Z,9.7
2022-09-04T01:00:40.261Z,9.6
2022-09-04T01:03:21.213Z,9.5
2022-09-04T01:05:51.802Z,9.5
2022-09-04T01:08:23.660Z,9.4
2022-09-04T01:10:54.273Z,9.4
2022-09-04T01:13:25.084Z,9.4
2022-09-04T01:15:55.733Z,9.5
2022-09-04T01:18:36.449Z,9.4
2022-09-04T01:21:07.002Z,9.4
2022-09-04T01:23:37.612Z,9.4
2022-09-04T01:26:08.203Z,9.4
2022-09-04T01:28:39.035Z,9.3
2022-09-04T01:31:09.610Z,9.3
2022-09-04T01:33:50.391Z,9.3
2022-09-04T01:36:20.987Z,9.2
2022-09-04T01:41:21.743Z,9.2
2022-09-04T01:43:48.138Z,9.2
2022-09-04T01:46:28.761Z,9.1
2022-09-04T01:48:59.377Z,9.1
2022-09-04T01:51:39.965Z,9.0
2022-09-04T01:54:10.554Z,9.0
2022-09-04T01:56:41.312Z,9.0
2022-09-04T01:59:11.946Z,9.0
2022-09-04T02:01:44.412Z,9.1
2022-09-04T02:04:15.181Z,9.1
2022-09-04T02:06:45.765Z,9.3
2022-09-04T02:09:16.361Z,9.2
2022-09-04T02:11:46.943Z,9.2
2022-09-04T02:14:19.107Z,9.2
2022-09-04T02:16:59.697Z,9.1
2022-09-04T02:22:00.358Z,9.0
2022-09-04T02:24:30.981Z,9.1
2022-09-04T02:27:01.588Z,9.0
2022-09-04T02:29:33.208Z,9.0
2022-09-04T02:32:13.933Z,9.0
2022-09-04T02:34:44.536Z,9.1
2022-09-04T02:37:15.128Z,9.2
2022-09-04T02:39:45.758Z,9.2
2022-09-04T02:42:16.621Z,9.3
2022-09-04T02:44:57.243Z,9.4
2022-09-04T02:47:27.833Z,9.3
2022-09-04T02:49:58.445Z,9.4
2022-09-04T02:52:29.016Z,9.4
2022-09-04T02:54:59.619Z,9.4
2022-09-04T02:57:30.269Z,9.5
2022-09-04T03:02:41.903Z,9.5
2022-09-04T03:05:12.500Z,9.2
2022-09-04T03:07:43.099Z,9.2
2022-09-04T03:10:23.719Z,9.1
2022-09-04T03:12:54.318Z,9.2
2022-09-04T03:15:34.925Z,9.3
2022-09-04T03:18:05.600Z,9.4
2022-09-04T03:20:27.642Z,9.6
2022-09-04T03:22:58.244Z,9.6
2022-09-04T03:25:28.844Z,9.4
2022-09-04T03:27:59.401Z,9.3
2022-09-04T03:30:40.076Z,9.2
2022-09-04T03:33:10.764Z,9.0
2022-09-04T03:35:41.477Z,9.0
2022-09-04T03:38:13.066Z,9.0
2022-09-04T03:43:23.934Z,9.2
2022-09-04T03:48:34.691Z,9.4
2022-09-04T03:51:05.297Z,9.6
2022-09-04T03:53:35.896Z,9.6
2022-09-04T03:56:06.462Z,9.6
2022-09-04T03:58:47.448Z,9.6
2022-09-04T04:01:20.575Z,9.6
2022-09-04T04:03:44.769Z,9.6
2022-09-04T04:06:15.347Z,9.7
2022-09-04T04:08:45.932Z,9.9
2022-09-04T04:11:16.676Z,10.1
2022-09-04T04:13:53.074Z,10.3
2022-09-04T04:16:33.775Z,10.3
2022-09-04T04:24:01.245Z,10.0
2022-09-04T04:26:31.859Z,9.8
2022-09-04T04:29:15.224Z,9.6
2022-09-04T04:31:47.295Z,9.5
2022-09-04T04:34:17.912Z,9.5
2022-09-04T04:36:48.506Z,9.6
2022-09-04T04:39:19.148Z,9.6
2022-09-04T04:41:51.019Z,9.7
2022-09-04T04:44:31.702Z,10.0
2022-09-04T04:47:02.309Z,10.0
2022-09-04T04:49:32.922Z,10.1
2022-09-04T04:52:03.478Z,10.1
2022-09-04T04:54:34.064Z,10.2
2022-09-04T04:57:14.652Z,10.1
2022-09-04T05:04:45.545Z,10.1
2022-09-04T05:07:16.112Z,10.1
2022-09-04T05:09:46.723Z,10.2
2022-09-04T05:12:27.332Z,10.3
2022-09-04T05:14:57.943Z,10.4
2022-09-04T05:17:28.517Z,10.6
2022-09-04T05:20:00.500Z,10.7
2022-09-04T05:22:34.119Z,10.8
2022-09-04T05:24:55.703Z,11.0
2022-09-04T05:27:37.244Z,11.0
2022-09-04T05:30:07.847Z,11.0
2022-09-04T05:32:38.463Z,11.0
2022-09-04T05:35:09.683Z,11.2
2022-09-04T05:37:45.788Z,11.2
2022-09-04T05:40:16.387Z,11.2
2022-09-04T05:45:27.134Z,11.3
2022-09-04T05:47:57.762Z,11.2
2022-09-04T05:50:28.451Z,11.0
2022-09-04T05:52:59.030Z,10.9
2022-09-04T05:55:39.637Z,11.0
2022-09-04T05:58:10.230Z,11.0
2022-09-04T06:00:40.861Z,11.2
2022-09-04T06:03:11.519Z,11.3
2022-09-04T06:05:42.870Z,11.4
2022-09-04T06:08:13.459Z,11.5
2022-09-04T06:10:48.944Z,11.6
2022-09-04T06:13:19.599Z,11.6
2022-09-04T06:15:51.188Z,11.7
2022-09-04T06:18:21.964Z,12.0
2022-09-04T06:20:52.575Z,12.2
2022-09-04T06:26:03.324Z,12.1
2022-09-04T06:28:33.924Z,12.2
2022-09-04T06:31:06.719Z,12.3
2022-09-04T06:33:37.473Z,12.2
2022-09-04T06:36:08.040Z,12.2
2022-09-04T06:38:38.656Z,12.2
2022-09-04T06:41:19.253Z,12.3
2022-09-04T06:43:49.866Z,12.3
2022-09-04T06:46:27.002Z,12.6
2022-09-04T06:48:57.870Z,12.8
2022-09-04T06:51:28.522Z,13.2
2022-09-04T06:54:09.705Z,13.8
2022-09-04T06:56:32.682Z,13.7
2022-09-04T06:59:03.288Z,13.8
2022-09-04T07:01:33.949Z,13.8
2022-09-04T07:06:45.164Z,13.9
2022-09-04T07:09:25.783Z,14.0
2022-09-04T07:11:56.386Z,14.1
2022-09-04T07:14:26.982Z,14.4
2022-09-04T07:19:27.690Z,14.2
2022-09-04T07:21:58.289Z,14.2
2022-09-04T07:24:38.911Z,14.1
2022-09-04T07:27:09.502Z,14.0
2022-09-04T07:29:40.124Z,14.0
2022-09-04T07:32:10.704Z,14.1
2022-09-04T07:34:41.301Z,14.2
2022-09-04T07:37:11.910Z,14.6
2022-09-04T07:39:52.541Z,14.5
2022-09-04T07:42:18.493Z,14.6
2022-09-04T07:47:21.676Z,14.8
2022-09-04T07:49:52.274Z,14.8
2022-09-04T07:52:32.943Z,14.8
2022-09-04T07:55:03.532Z,14.8
2022-09-04T07:57:34.088Z,14.8
2022-09-04T08:00:04.706Z,14.9
2022-09-04T08:02:35.293Z,15.1
2022-09-04T08:05:05.968Z,15.2
2022-09-04T08:07:46.745Z,15.1
2022-09-04T08:10:17.342Z,15.2
2022-09-04T08:12:47.958Z,15.1
2022-09-04T08:15:18.522Z,15.2
2022-09-04T08:17:53.122Z,15.3
2022-09-04T08:20:23.693Z,15.3
2022-09-04T08:23:06.293Z,15.4
2022-09-04T08:28:07.036Z,15.6
2022-09-04T08:30:37.679Z,15.5
2022-09-04T08:33:08.482Z,15.6
2022-09-04T08:35:39.078Z,15.7
2022-09-04T08:38:19.716Z,15.6
2022-09-04T08:40:52.206Z,15.8
2022-09-04T08:43:22.925Z,16.0
2022-09-04T08:45:53.610Z,16.0
2022-09-04T08:48:24.528Z,16.1
2022-09-04T08:51:05.182Z,16.3
2022-09-04T08:53:35.774Z,16.2
2022-09-04T08:56:07.047Z,16.5
2022-09-04T08:58:37.700Z,16.5
2022-09-04T09:01:09.451Z,16.5
2022-09-04T09:03:40.206Z,16.5
2022-09-04T09:08:50.957Z,16.4
2022-09-04T09:11:22.445Z,16.5
2022-09-04T09:13:53.040Z,16.4
2022-09-04T09:16:23.636Z,16.5
2022-09-04T09:18:54.560Z,16.5
2022-09-04T09:21:35.271Z,16.6
2022-09-04T09:24:05.881Z,16.7
2022-09-04T09:26:36.484Z,16.7
2022-09-04T09:29:07.183Z,16.7
2022-09-04T09:31:37.768Z,16.8
2022-09-04T09:34:03.688Z,17.0
2022-09-04T09:36:44.275Z,17.1
2022-09-04T09:39:14.905Z,17.2
2022-09-04T09:41:45.647Z,17.4
2022-09-04T09:44:16.232Z,17.5
2022-09-04T09:49:27.913Z,17.8
2022-09-04T09:51:59.886Z,17.8
2022-09-04T09:54:30.464Z,18.1
2022-09-04T09:57:01.056Z,18.2
2022-09-04T09:59:33.478Z,18.2
2022-09-04T10:02:04.154Z,18.3
2022-09-04T10:04:45.110Z,18.2
2022-09-04T10:07:15.661Z,18.4
2022-09-04T10:09:46.239Z,18.6
2022-09-04T10:12:16.816Z,18.5
2022-09-04T10:14:47.426Z,18.6
2022-09-04T10:17:21.153Z,18.8
2022-09-04T10:20:01.720Z,18.9
2022-09-04T10:22:32.297Z,19.2
2022-09-04T10:25:02.927Z,19.4
2022-09-04T10:30:04.404Z,19.2
2022-09-04T10:32:35.266Z,19.2
2022-09-04T10:35:15.863Z,19.4
2022-09-04T10:37:46.468Z,19.8
2022-09-04T10:40:17.068Z,20.1
2022-09-04T10:42:43.383Z,20.1
2022-09-04T10:45:13.963Z,20.4
2022-09-04T10:47:54.670Z,20.7
2022-09-04T10:50:25.269Z,20.7
2022-09-04T10:52:55.839Z,20.7
2022-09-04T10:55:26.420Z,20.6
2022-09-04T10:57:57.032Z,20.9
2022-09-04T11:00:27.657Z,20.9
2022-09-04T11:03:08.375Z,21.3
2022-09-04T11:10:39.310Z,21.8
2022-09-04T11:13:09.874Z,22.0
2022-09-04T11:15:40.510Z,21.7
2022-09-04T11:18:21.094Z,21.8
2022-09-04T11:21:01.704Z,22.0
2022-09-04T11:23:32.295Z,22.0
2022-09-04T11:25:53.271Z,22.1
2022-09-04T11:28:24.047Z,21.9
2022-09-04T11:31:04.659Z,22.0
2022-09-04T11:33:45.366Z,21.8
2022-09-04T11:36:15.973Z,21.6
2022-09-04T11:38:46.598Z,21.7
2022-09-04T11:41:17.589Z,21.8
2022-09-04T11:43:48.208Z,21.7
2022-09-04T11:46:28.788Z,21.7
2022-09-04T11:51:29.547Z,21.6
2022-09-04T11:54:00.152Z,21.6
2022-09-04T11:56:30.719Z,21.6
2022-09-04T11:59:01.361Z,21.7
2022-09-04T12:01:44.542Z,21.6
2022-09-04T12:04:06.471Z,21.7
2022-09-04T12:06:37.174Z,21.8
2022-09-04T12:09:07.754Z,21.7
2022-09-04T12:11:38.838Z,21.7
2022-09-04T12:14:11.332Z,21.7
2022-09-04T12:16:51.969Z,21.6
2022-09-04T12:19:22.610Z,21.5
2022-09-04T12:21:53.201Z,21.6
2022-09-04T12:24:23.808Z,21.6
2022-09-04T12:26:57.037Z,21.6
2022-09-04T12:32:10.159Z,21.6
2022-09-04T12:34:40.729Z,21.7
2022-09-04T12:37:11.326Z,21.7
2022-09-04T12:39:42.009Z,21.6
2022-09-04T12:42:14.420Z,21.5
2022-09-04T12:44:45.163Z,21.5
2022-09-04T12:47:25.754Z,21.5
2022-09-04T12:49:56.370Z,21.5
2022-09-04T12:52:26.978Z,21.6
2022-09-04T12:54:57.545Z,21.6
2022-09-04T12:57:28.109Z,21.6
2022-09-04T13:00:08.747Z,21.7
2022-09-04T13:02:42.285Z,21.8
2022-09-04T13:05:12.909Z,21.9
2022-09-04T13:07:43.536Z,22.0
2022-09-04T13:12:44.262Z,22.3
2022-09-04T13:15:24.903Z,22.4
2022-09-04T13:17:55.453Z,22.5
2022-09-04T13:20:26.070Z,22.2
2022-09-04T13:22:57.851Z,22.3
2022-09-04T13:25:26.237Z,22.4
2022-09-04T13:27:56.826Z,22.4
2022-09-04T13:30:37.902Z,22.4
2022-09-04T13:33:08.509Z,22.5
2022-09-04T13:35:39.194Z,22.7
2022-09-04T13:38:09.790Z,22.7
2022-09-04T13:40:40.413Z,23.0
2022-09-04T13:43:10.979Z,23.1
2022-09-04T13:48:21.706Z,24.0
2022-09-04T13:53:23.006Z,24.5
2022-09-04T13:58:33.788Z,23.5
2022-09-04T14:01:08.098Z,23.7
2022-09-04T14:03:38.980Z,23.6
2022-09-04T14:06:09.746Z,24.1
2022-09-04T14:08:40.347Z,24.8
2022-09-04T14:11:05.834Z,25.4
2022-09-04T14:13:46.485Z,26.0
2022-09-04T14:16:17.095Z,26.4
2022-09-04T14:18:47.932Z,26.6
2022-09-04T14:21:25.625Z,26.6
2022-09-04T14:23:56.298Z,26.2
2022-09-04T14:26:19.172Z,25.9
2022-09-04T14:29:01.574Z,26.2
2022-09-04T14:34:02.487Z,25.6
2022-09-04T14:36:33.082Z,24.9
2022-09-04T14:39:03.688Z,24.3
2022-09-04T14:41:36.102Z,24.1
2022-09-04T14:44:16.962Z,23.8
2022-09-04T14:46:50.853Z,23.6
2022-09-04T14:49:22.015Z,23.3
2022-09-04T14:51:47.516Z,23.1
2022-09-04T14:54:18.110Z,22.9
2022-09-04T14:56:58.709Z,22.8
2022-09-04T14:59:29.298Z,22.8
2022-09-04T15:01:59.966Z,22.8
2022-09-04T15:04:34.092Z,22.9
2022-09-04T15:07:11.526Z,22.8
2022-09-04T15:09:32.522Z,22.7
2022-09-04T15:14:43.263Z,22.6
2022-09-04T15:17:13.858Z,22.8
2022-09-04T15:19:44.447Z,23.2
2022-09-04T15:22:15.026Z,23.8
2022-09-04T15:24:45.598Z,24.2
2022-09-04T15:27:36.198Z,24.7
2022-09-04T15:30:06.838Z,25.0
2022-09-04T15:32:37.406Z,24.8
2022-09-04T15:35:08.000Z,24.9
2022-09-04T15:37:33.545Z,25.0
2022-09-04T15:40:04.319Z,25.4
2022-09-04T15:42:45.020Z,25.9
2022-09-04T15:45:15.620Z,26.3
2022-09-04T15:47:46.292Z,26.5
2022-09-04T15:50:16.888Z,26.6
2022-09-04T15:55:27.637Z,26.3
2022-09-04T15:57:58.518Z,26.0
2022-09-04T16:00:29.201Z,25.7
2022-09-04T16:02:59.804Z,25.7
2022-09-04T16:05:30.472Z,25.0
2022-09-04T16:08:01.050Z,25.1
2022-09-04T16:10:42.680Z,25.3
2022-09-04T16:13:13.311Z,24.7
2022-09-04T16:15:43.924Z,24.6
2022-09-04T16:18:14.952Z,25.0
2022-09-04T16:20:45.660Z,25.0
2022-09-04T16:23:16.226Z,24.6
2022-09-04T16:25:56.841Z,24.4
2022-09-04T16:28:27.456Z,24.2
2022-09-04T16:30:58.134Z,23.8
2022-09-04T16:35:58.986Z,23.5
2022-09-04T16:38:29.862Z,23.2
2022-09-04T16:41:11.089Z,23.1
2022-09-04T16:43:41.699Z,23.2
2022-09-04T16:46:12.390Z,23.0
2022-09-04T16:48:43.272Z,23.1
2022-09-04T16:51:39.618Z,23.3
2022-09-04T16:54:01.527Z,23.4
2022-09-04T16:56:30.501Z,23.3
2022-09-04T16:59:02.293Z,23.3
2022-09-04T17:01:33.072Z,23.4
2022-09-04T17:04:12.961Z,23.1
2022-09-04T17:06:29.387Z,23.1
2022-09-04T17:09:15.479Z,23.1
2022-09-04T17:11:42.014Z,23.0
2022-09-04T17:16:46.560Z,22.6
2022-09-04T17:19:10.467Z,22.5
2022-09-04T17:23:01.371Z,22.2
2022-09-04T17:29:48.503Z,22.2
2022-09-04T17:30:31.556Z,21.8
2022-09-04T17:31:02.481Z,21.6
2022-09-04T17:31:55.344Z,21.3
2022-09-04T17:41:35.010Z,21.1
2022-09-04T17:42:29.261Z,20.9
2022-09-04T17:43:32.518Z,20.7
2022-09-04T17:44:03.021Z,20.5
2022-09-04T17:44:43.506Z,20.3
2022-09-04T17:47:14.089Z,20.0
2022-09-04T17:49:44.683Z,19.8
2022-09-04T17:52:25.468Z,19.5
2022-09-04T17:57:26.177Z,19.1
2022-09-04T17:59:56.782Z,18.8
2022-09-04T18:02:27.439Z,18.6
2022-09-04T18:04:58.167Z,18.3
2022-09-04T18:08:07.026Z,18.2
2022-09-04T18:10:09.648Z,18.0
2022-09-04T18:12:40.266Z,18.0
2022-09-04T18:15:32.953Z,17.7
2022-09-04T18:17:44.610Z,17.6
2022-09-04T18:20:15.182Z,17.3
2022-09-04T18:25:25.954Z,16.8
2022-09-04T18:28:06.694Z,16.8
2022-09-04T18:31:42.973Z,16.7
2022-09-04T18:37:55.138Z,16.7
2022-09-04T18:38:25.956Z,16.5
2022-09-04T18:41:48.117Z,16.4
2022-09-04T18:51:30.258Z,16.4
2022-09-04T18:52:01.087Z,16.2
2022-09-04T18:52:33.521Z,16.1
2022-09-04T18:53:03.997Z,16.1
2022-09-04T18:53:34.476Z,15.9
2022-09-04T18:55:55.046Z,15.7
2022-09-04T18:58:20.886Z,15.6
2022-09-04T19:00:51.542Z,15.4
2022-09-04T19:03:22.519Z,15.2
2022-09-04T19:06:05.665Z,15.0
2022-09-04T19:08:38.466Z,14.8
2022-09-04T19:11:09.332Z,14.5
2022-09-04T19:13:41.401Z,14.3
2022-09-04T19:18:41.122Z,14.0
2022-09-04T19:21:24.127Z,14.0
2022-09-04T19:23:48.537Z,13.8
2022-09-04T19:26:22.987Z,13.7
2022-09-04T19:28:53.617Z,13.7
2022-09-04T19:31:24.253Z,13.6
2022-09-04T19:33:57.023Z,13.6
2022-09-04T19:36:38.386Z,13.5
2022-09-04T19:41:42.993Z,13.4
2022-09-04T19:46:54.885Z,13.4
2022-09-04T19:47:38.940Z,13.3
2022-09-04T19:48:10.051Z,13.3
2022-09-04T19:49:43.816Z,13.3
2022-09-04T19:54:00.145Z,13.2
2022-09-04T19:54:30.617Z,13.2
2022-09-04T19:59:26.126Z,13.2
2022-09-04T20:01:58.240Z,13.1
2022-09-04T20:04:33.517Z,13.0
2022-09-04T20:07:05.119Z,12.9
2022-09-04T20:09:35.696Z,12.8
2022-09-04T20:12:06.295Z,12.7
2022-09-04T20:14:36.939Z,12.6
2022-09-04T20:17:07.553Z,12.5
2022-09-04T20:19:48.152Z,12.4
2022-09-04T20:22:18.736Z,12.4
2022-09-04T20:24:58.475Z,12.4
2022-09-04T20:27:22.752Z,12.2
2022-09-04T20:29:56.767Z,12.2
2022-09-04T20:32:27.394Z,12.1
2022-09-04T20:35:13.333Z,12.0
2022-09-04T20:40:03.619Z,12.0
2022-09-04T20:42:37.170Z,12.0
2022-09-04T20:45:59.178Z,11.9
2022-09-04T20:53:30.481Z,11.9
2022-09-04T20:54:01.279Z,11.9
2022-09-04T20:54:38.788Z,11.9
2022-09-04T20:55:19.275Z,11.9
2022-09-04T21:00:07.647Z,11.9
2022-09-04T21:03:53.490Z,11.8
2022-09-04T21:04:39.073Z,11.8
2022-09-04T21:05:34.175Z,11.6
2022-09-04T21:08:07.315Z,11.6
2022-09-04T21:10:37.894Z,11.6
2022-09-04T21:13:08.742Z,11.6
2022-09-04T21:15:35.477Z,11.6
2022-09-04T21:20:51.862Z,11.8
2022-09-04T21:23:21.271Z,11.7
2022-09-04T21:25:46.696Z,11.8
2022-09-04T21:28:20.164Z,11.9
2022-09-04T21:30:50.783Z,12.2
2022-09-04T21:33:34.659Z,12.2
2022-09-04T21:36:25.891Z,12.2
2022-09-04T21:38:37.679Z,12.2
2022-09-04T21:41:04.895Z,12.2
2022-09-04T21:43:35.540Z,12.1
2022-09-04T21:46:07.715Z,12.1
2022-09-04T21:48:42.235Z,12.1
2022-09-04T21:51:23.289Z,12.1
2022-09-04T21:53:49.548Z,12.2
2022-09-04T22:02:34.260Z,12.1
2022-09-04T22:04:01.773Z,12.0
2022-09-04T22:06:45.990Z,11.9
2022-09-04T22:14:03.561Z,11.7
2022-09-04T22:14:34.077Z,11.5
2022-09-04T22:15:04.670Z,11.4
2022-09-04T22:16:49.667Z,11.2
2022-09-04T22:19:20.283Z,11.1
2022-09-04T22:21:50.867Z,11.1
2022-09-04T22:24:14.272Z,11.0
2022-09-04T22:26:51.620Z,10.9
2022-09-04T22:29:26.723Z,10.9
2022-09-04T22:32:00.087Z,10.8
2022-09-04T22:34:30.451Z,10.8
2022-09-04T22:37:01.217Z,10.8
2022-09-04T22:42:01.999Z,10.9
2022-09-04T22:44:30.707Z,11.2
2022-09-04T22:47:11.332Z,11.2
2022-09-04T22:49:41.984Z,11.2
2022-09-04T22:52:17.554Z,11.2
2022-09-04T22:54:48.163Z,11.1
2022-09-04T22:57:16.428Z,11.0
2022-09-04T22:59:45.400Z,10.8
2022-09-04T23:02:40.966Z,10.8
2022-09-04T23:04:59.092Z,10.7
2022-09-04T23:09:07.330Z,10.7
2022-09-04T23:14:29.101Z,10.6
2022-09-04T23:15:08.137Z,10.5
2022-09-04T23:15:39.355Z,10.5
2022-09-04T23:17:42.156Z,10.4
2022-09-04T23:26:58.945Z,10.4
2022-09-04T23:27:38.533Z,10.5
2022-09-04T23:28:27.436Z,10.9
2022-09-04T23:30:24.377Z,11.2
2022-09-04T23:32:59.195Z,11.4
2022-09-04T23:35:28.089Z,11.4
2022-09-04T23:38:00.322Z,11.3
2022-09-04T23:40:31.388Z,11.5
2022-09-04T23:43:01.995Z,11.6
2022-09-04T23:45:38.145Z,11.6
2022-09-04T23:48:14.579Z,11.5
2022-09-04T23:50:45.182Z,11.4
2022-09-04T23:53:15.767Z,11.2
2022-09-04T23:55:48.772Z,11.0
2022-09-04T23:58:19.685Z,10.9
